Am Express — VRGC7 — position and weather

sailwx.info

Track history (hours):
 
Tides and Currents Weather Stations Pressure Air Temp Water Temp Dewpoint Dewpoint Depression Visibility Wind Speed Wind Dir Waves Ship Positions

Am Express

Last reported at 2018-Jun-21 16:54 UTC. Time now 2018-Jun-21 23:55 UTC.
Position N 37°20' E 004°20'.

Length 222 m; draft 14.2 m.

Type: Cargo ship. MMSI: 477655300.

Date/timePositionNaut miles runAvg speedWind from/ knotsBaromVisibWave heightAir tempDewpointWater temp
2018-Jun-21 16:54N 37°20' E 004°20'512.0
2018-Jun-21 16:30N 37°19' E 004°14'612.0
2018-Jun-21 15:59N 37°19' E 004°06'611.9
2018-Jun-21 15:30N 37°18' E 003°59'611.6
2018-Jun-21 15:00N 37°17' E 003°52'611.3
2018-Jun-21 14:30N 37°16' E 003°45'611.0
2018-Jun-21 14:00N 37°15' E 003°38'511.0
2018-Jun-21 13:30N 37°14' E 003°31'510.8
2018-Jun-21 13:00N 37°13' E 003°25'2110.7
2018-Jun-21 11:05N 37°09' E 002°59'111.0
2018-Jun-21 11:00N 37°09' E 002°58'3111.5
2018-Jun-21 08:17N 37°02' E 002°20'312.4
2018-Jun-21 08:00N 37°01' E 002°15'5412.6
2018-Jun-21 03:46N 36°50' E 001°10'2012.8
2018-Jun-21 02:10N 36°46' E 000°45'212.8
2018-Jun-21 01:59N 36°45' E 000°42'712.8
2018-Jun-21 01:27N 36°44' E 000°34'612.9
2018-Jun-21 01:00N 36°43' E 000°27'612.9
2018-Jun-21 00:30N 36°41' E 000°19'612.5
2018-Jun-21 00:00N 36°40' E 000°11'612.1
2018-Jun-20 23:29N 36°38' E 000°04'712.0
2018-Jun-20 22:56N 36°37' W 000°04'512.0
2018-Jun-20 22:30N 36°36' W 000°11'612.0
2018-Jun-20 22:00N 36°35' W 000°18'712.1
2018-Jun-20 21:24N 36°33' W 000°27'511.8
2018-Jun-20 21:00N 36°33' W 000°33'611.8
2018-Jun-20 20:30N 36°32' W 000°40'611.9
2018-Jun-20 20:00N 36°31' W 000°47'1112.2
2018-Jun-20 19:07N 36°29' W 001°01'34812.2
2018-Jun-19 14:30N 36°20' W 008°13'3612.7
2018-Jun-19 11:39N 36°29' W 008°57'212.8
2018-Jun-19 11:29N 36°29' W 008°59'712.8
2018-Jun-19 10:57N 36°31' W 009°07'7111.7
2018-Jun-19 04:53N 37°35' W 009°47'512.3
2018-Jun-19 04:30N 37°39' W 009°49'612.3
2018-Jun-19 04:00N 37°45' W 009°50'712.4
2018-Jun-19 03:26N 37°52' W 009°52'512.5
2018-Jun-19 02:59N 37°58' W 009°54'612.3
2018-Jun-19 02:31N 38°03' W 009°56'612.8
2018-Jun-19 02:01N 38°09' W 009°58'612.3
2018-Jun-19 01:30N 38°16' W 009°60'612.2
2018-Jun-19 01:01N 38°21' W 010°01'612.6
2018-Jun-19 00:30N 38°28' W 010°02'612.6
2018-Jun-19 00:01N 38°34' W 010°04'612.0
2018-Jun-18 23:30N 38°40' W 010°05'612.1
2018-Jun-18 23:00N 38°46' W 010°06'612.7
2018-Jun-18 22:31N 38°52' W 010°06'612.3
2018-Jun-18 22:00N 38°58' W 010°06'612.5
2018-Jun-18 21:31N 39°04' W 010°07'612.2
2018-Jun-18 21:00N 39°11' W 010°07'612.4
2018-Jun-18 20:30N 39°17' W 010°07'612.1
2018-Jun-18 20:00N 39°23' W 010°08'612.1
2018-Jun-18 19:31N 39°29' W 010°07'611.9
2018-Jun-18 19:00N 39°35' W 010°08'612.4
2018-Jun-18 18:31N 39°41' W 010°07'612.3
2018-Jun-18 18:01N 39°47' W 010°07'612.4
2018-Jun-18 17:31N 39°53' W 010°07'712.3
2018-Jun-18 16:55N 40°01' W 010°07'512.4
2018-Jun-18 16:31N 40°06' W 010°07'612.3
2018-Jun-18 16:00N 40°12' W 010°07'612.2
2018-Jun-18 15:30N 40°18' W 010°07'612.1
2018-Jun-18 15:00N 40°24' W 010°07'2012.3
2018-Jun-18 13:22N 40°44' W 010°07'52111.9
2018-Jun-16 17:26N 48°52' W 005°47'2110.1
2018-Jun-16 15:22N 49°04' W 005°21'911.5
2018-Jun-16 14:35N 49°09' W 005°10'111.9
2018-Jun-16 14:30N 49°09' W 005°09'3012.8
2018-Jun-16 12:10N 49°24' W 004°29'4611.3
2018-Jun-16 08:07N 49°47' W 003°28'1 9.6
2018-Jun-16 08:00N 49°48' W 003°26'5 9.5
2018-Jun-16 07:31N 49°51' W 003°20'5 9.8
2018-Jun-16 06:59N 49°53' W 003°13'510.6
2018-Jun-16 06:30N 49°56' W 003°07'611.1
2018-Jun-16 06:00N 49°58' W 002°59'612.0
2018-Jun-16 05:31N 49°60' W 002°50'713.0
2018-Jun-16 05:00N 50°02' W 002°40'7913.9
2018-Jun-15 23:22N 50°23' W 000°42'4 9.3
2018-Jun-15 22:54N 50°24' W 000°36'5 9.2
2018-Jun-15 22:20N 50°25' W 000°28'3 9.2
2018-Jun-15 21:58N 50°26' W 000°23'4 9.3
2018-Jun-15 21:30N 50°27' W 000°16'6 9.8
2018-Jun-15 20:50N 50°29' W 000°06'410.2
2018-Jun-15 20:28N 50°29' W 000°00'811.0
2018-Jun-15 19:45N 50°32' E 000°12'311.9
2018-Jun-15 19:30N 50°32' E 000°16'612.5
2018-Jun-15 19:00N 50°34' E 000°26'613.0
2018-Jun-15 18:30N 50°37' E 000°35'713.5
2018-Jun-15 18:00N 50°41' E 000°43'713.3
2018-Jun-15 17:30N 50°45' E 000°52'612.9
2018-Jun-15 17:00N 50°49' E 001°00'612.2
2018-Jun-15 16:30N 50°53' E 001°07'611.9
2018-Jun-15 16:00N 50°57' E 001°14'611.1
2018-Jun-15 15:30N 51°01' E 001°21'510.4
2018-Jun-15 15:00N 51°04' E 001°27'5 9.6
2018-Jun-15 14:30N 51°07' E 001°33'4 8.9
2018-Jun-15 14:00N 51°10' E 001°38'5 9.1
2018-Jun-15 13:30N 51°13' E 001°44'5 9.8
2018-Jun-15 13:00N 51°17' E 001°49'510.6
2018-Jun-15 12:30N 51°21' E 001°54'611.3
2018-Jun-15 12:00N 51°26' E 001°58'612.5
2018-Jun-15 11:30N 51°31' E 002°05'713.2
2018-Jun-15 11:00N 51°36' E 002°12'713.9
2018-Jun-15 10:30N 51°41' E 002°19'714.3
2018-Jun-15 10:00N 51°47' E 002°26'714.4
2018-Jun-15 09:30N 51°52' E 002°34'713.5
2018-Jun-15 09:00N 51°59' E 002°36'714.2
2018-Jun-15 08:29N 52°06' E 002°37'813.8
2018-Jun-15 07:56N 52°14' E 002°40'713.5
2018-Jun-15 07:23N 52°20' E 002°45'513.0
2018-Jun-15 07:00N 52°25' E 002°48'712.5
2018-Jun-15 06:28N 52°31' E 002°52'611.5
2018-Jun-15 05:58N 52°36' E 002°58'511.6
2018-Jun-15 05:30N 52°40' E 003°02'611.2
2018-Jun-15 04:59N 52°45' E 003°07'40010.3
2018-Jun-13 14:06N 57°48' E 010°46'110.1
2018-Jun-13 14:00N 57°47' E 010°48'6 9.5
2018-Jun-13 13:25N 57°42' E 010°52'511.0
2018-Jun-13 13:00N 57°40' E 011°00'611.9
2018-Jun-13 12:30N 57°37' E 011°09'612.1
2018-Jun-13 12:00N 57°33' E 011°17'611.6
2018-Jun-13 11:30N 57°29' E 011°25'611.5
2018-Jun-13 11:00N 57°23' E 011°28'611.3
2018-Jun-13 10:30N 57°18' E 011°32'611.7
2018-Jun-13 09:59N 57°12' E 011°36'711.6
2018-Jun-13 09:23N 57°05' E 011°40'1011.6
2018-Jun-13 08:31N 56°56' E 011°46'105 9.5
2018-Jun-12 21:24N 55°13' E 011°06'4 9.3
2018-Jun-12 21:00N 55°10' E 011°02'510.1
2018-Jun-12 20:30N 55°06' E 010°60'510.1
2018-Jun-12 20:00N 55°01' E 010°59'1210.0
2018-Jun-12 18:49N 54°50' E 010°50'3 9.6
2018-Jun-12 18:30N 54°47' E 010°49'5 9.9
2018-Jun-12 18:00N 54°42' E 010°47'4 7.6
2018-Jun-12 17:30N 54°39' E 010°51'5 9.3
2018-Jun-12 17:00N 54°37' E 010°58'5 9.6
2018-Jun-12 16:30N 54°36' E 011°06'5 9.5
2018-Jun-12 16:00N 54°35' E 011°14'510.1
2018-Jun-12 15:30N 54°33' E 011°22'5 9.7
2018-Jun-12 15:00N 54°31' E 011°29'5 9.9
2018-Jun-12 14:30N 54°29' E 011°37'510.2
2018-Jun-12 14:00N 54°28' E 011°46'510.4
2018-Jun-12 13:30N 54°27' E 011°55'510.4
2018-Jun-12 13:00N 54°27' E 012°03'7710.5
2018-Jun-12 05:42N 55°04' E 013°60'511.4
2018-Jun-12 05:18N 55°07' E 014°06'411.8
2018-Jun-12 04:55N 55°10' E 014°11'511.9
2018-Jun-12 04:30N 55°14' E 014°17'612.0
2018-Jun-12 04:00N 55°18' E 014°23'611.8
2018-Jun-12 03:30N 55°23' E 014°30'611.7
2018-Jun-12 02:59N 55°28' E 014°37'611.6
2018-Jun-12 02:27N 55°30' E 014°47'511.7
2018-Jun-12 02:00N 55°33' E 014°55'611.6
2018-Jun-12 01:30N 55°35' E 015°05'611.8
2018-Jun-12 00:58N 55°38' E 015°15'1011.5
2018-Jun-12 00:08N 55°40' E 015°31'511.4
2018-Jun-11 23:40N 55°41' E 015°40'  
Track history (hours):
 
Tides and Currents Weather Stations Pressure Air Temp Water Temp Dewpoint Dewpoint Depression Visibility Wind Speed Wind Dir Waves Ship Positions

Am Express

Last reported at 2018-Jun-21 16:54 UTC. Time now 2018-Jun-21 23:55 UTC.
Position N 37°20' E 004°20'.

Length 222 m; draft 14.2 m.

Type: Cargo ship. MMSI: 477655300.

Date/timePositionNaut miles runAvg speedWind from/ knotsBaromVisibWave heightAir tempDewpointWater temp
2018-Jun-21 16:54N 37°20' E 004°20'512.0
2018-Jun-21 16:30N 37°19' E 004°14'612.0
2018-Jun-21 15:59N 37°19' E 004°06'611.9
2018-Jun-21 15:30N 37°18' E 003°59'611.6
2018-Jun-21 15:00N 37°17' E 003°52'611.3
2018-Jun-21 14:30N 37°16' E 003°45'611.0
2018-Jun-21 14:00N 37°15' E 003°38'511.0
2018-Jun-21 13:30N 37°14' E 003°31'510.8
2018-Jun-21 13:00N 37°13' E 003°25'2110.7
2018-Jun-21 11:05N 37°09' E 002°59'111.0
2018-Jun-21 11:00N 37°09' E 002°58'3111.5
2018-Jun-21 08:17N 37°02' E 002°20'312.4
2018-Jun-21 08:00N 37°01' E 002°15'5412.6
2018-Jun-21 03:46N 36°50' E 001°10'2012.8
2018-Jun-21 02:10N 36°46' E 000°45'212.8
2018-Jun-21 01:59N 36°45' E 000°42'712.8
2018-Jun-21 01:27N 36°44' E 000°34'612.9
2018-Jun-21 01:00N 36°43' E 000°27'612.9
2018-Jun-21 00:30N 36°41' E 000°19'612.5
2018-Jun-21 00:00N 36°40' E 000°11'612.1
2018-Jun-20 23:29N 36°38' E 000°04'712.0
2018-Jun-20 22:56N 36°37' W 000°04'512.0
2018-Jun-20 22:30N 36°36' W 000°11'612.0
2018-Jun-20 22:00N 36°35' W 000°18'712.1
2018-Jun-20 21:24N 36°33' W 000°27'511.8
2018-Jun-20 21:00N 36°33' W 000°33'611.8
2018-Jun-20 20:30N 36°32' W 000°40'611.9
2018-Jun-20 20:00N 36°31' W 000°47'1112.2
2018-Jun-20 19:07N 36°29' W 001°01'34812.2
2018-Jun-19 14:30N 36°20' W 008°13'3612.7
2018-Jun-19 11:39N 36°29' W 008°57'212.8
2018-Jun-19 11:29N 36°29' W 008°59'712.8
2018-Jun-19 10:57N 36°31' W 009°07'7111.7
2018-Jun-19 04:53N 37°35' W 009°47'512.3
2018-Jun-19 04:30N 37°39' W 009°49'612.3
2018-Jun-19 04:00N 37°45' W 009°50'712.4
2018-Jun-19 03:26N 37°52' W 009°52'512.5
2018-Jun-19 02:59N 37°58' W 009°54'612.3
2018-Jun-19 02:31N 38°03' W 009°56'612.8
2018-Jun-19 02:01N 38°09' W 009°58'612.3
2018-Jun-19 01:30N 38°16' W 009°60'612.2
2018-Jun-19 01:01N 38°21' W 010°01'612.6
2018-Jun-19 00:30N 38°28' W 010°02'612.6
2018-Jun-19 00:01N 38°34' W 010°04'612.0
2018-Jun-18 23:30N 38°40' W 010°05'612.1
2018-Jun-18 23:00N 38°46' W 010°06'612.7
2018-Jun-18 22:31N 38°52' W 010°06'612.3
2018-Jun-18 22:00N 38°58' W 010°06'612.5
2018-Jun-18 21:31N 39°04' W 010°07'612.2
2018-Jun-18 21:00N 39°11' W 010°07'612.4
2018-Jun-18 20:30N 39°17' W 010°07'612.1
2018-Jun-18 20:00N 39°23' W 010°08'612.1
2018-Jun-18 19:31N 39°29' W 010°07'611.9
2018-Jun-18 19:00N 39°35' W 010°08'612.4
2018-Jun-18 18:31N 39°41' W 010°07'612.3
2018-Jun-18 18:01N 39°47' W 010°07'612.4
2018-Jun-18 17:31N 39°53' W 010°07'712.3
2018-Jun-18 16:55N 40°01' W 010°07'512.4
2018-Jun-18 16:31N 40°06' W 010°07'612.3
2018-Jun-18 16:00N 40°12' W 010°07'612.2
2018-Jun-18 15:30N 40°18' W 010°07'612.1
2018-Jun-18 15:00N 40°24' W 010°07'2012.3
2018-Jun-18 13:22N 40°44' W 010°07'52111.9
2018-Jun-16 17:26N 48°52' W 005°47'2110.1
2018-Jun-16 15:22N 49°04' W 005°21'911.5
2018-Jun-16 14:35N 49°09' W 005°10'111.9
2018-Jun-16 14:30N 49°09' W 005°09'3012.8
2018-Jun-16 12:10N 49°24' W 004°29'4611.3
2018-Jun-16 08:07N 49°47' W 003°28'1 9.6
2018-Jun-16 08:00N 49°48' W 003°26'5 9.5
2018-Jun-16 07:31N 49°51' W 003°20'5 9.8
2018-Jun-16 06:59N 49°53' W 003°13'510.6
2018-Jun-16 06:30N 49°56' W 003°07'611.1
2018-Jun-16 06:00N 49°58' W 002°59'612.0
2018-Jun-16 05:31N 49°60' W 002°50'713.0
2018-Jun-16 05:00N 50°02' W 002°40'7913.9
2018-Jun-15 23:22N 50°23' W 000°42'4 9.3
2018-Jun-15 22:54N 50°24' W 000°36'5 9.2
2018-Jun-15 22:20N 50°25' W 000°28'3 9.2
2018-Jun-15 21:58N 50°26' W 000°23'4 9.3
2018-Jun-15 21:30N 50°27' W 000°16'6 9.8
2018-Jun-15 20:50N 50°29' W 000°06'410.2
2018-Jun-15 20:28N 50°29' W 000°00'811.0
2018-Jun-15 19:45N 50°32' E 000°12'311.9
2018-Jun-15 19:30N 50°32' E 000°16'612.5
2018-Jun-15 19:00N 50°34' E 000°26'613.0
2018-Jun-15 18:30N 50°37' E 000°35'713.5
2018-Jun-15 18:00N 50°41' E 000°43'713.3
2018-Jun-15 17:30N 50°45' E 000°52'612.9
2018-Jun-15 17:00N 50°49' E 001°00'612.2
2018-Jun-15 16:30N 50°53' E 001°07'611.9
2018-Jun-15 16:00N 50°57' E 001°14'611.1
2018-Jun-15 15:30N 51°01' E 001°21'510.4
2018-Jun-15 15:00N 51°04' E 001°27'5 9.6
2018-Jun-15 14:30N 51°07' E 001°33'4 8.9
2018-Jun-15 14:00N 51°10' E 001°38'5 9.1
2018-Jun-15 13:30N 51°13' E 001°44'5 9.8
2018-Jun-15 13:00N 51°17' E 001°49'510.6
2018-Jun-15 12:30N 51°21' E 001°54'611.3
2018-Jun-15 12:00N 51°26' E 001°58'612.5
2018-Jun-15 11:30N 51°31' E 002°05'713.2
2018-Jun-15 11:00N 51°36' E 002°12'713.9
2018-Jun-15 10:30N 51°41' E 002°19'714.3
2018-Jun-15 10:00N 51°47' E 002°26'714.4
2018-Jun-15 09:30N 51°52' E 002°34'713.5
2018-Jun-15 09:00N 51°59' E 002°36'714.2
2018-Jun-15 08:29N 52°06' E 002°37'813.8
2018-Jun-15 07:56N 52°14' E 002°40'713.5
2018-Jun-15 07:23N 52°20' E 002°45'513.0
2018-Jun-15 07:00N 52°25' E 002°48'712.5
2018-Jun-15 06:28N 52°31' E 002°52'611.5
2018-Jun-15 05:58N 52°36' E 002°58'511.6
2018-Jun-15 05:30N 52°40' E 003°02'611.2
2018-Jun-15 04:59N 52°45' E 003°07'40010.3
2018-Jun-13 14:06N 57°48' E 010°46'110.1
2018-Jun-13 14:00N 57°47' E 010°48'6 9.5
2018-Jun-13 13:25N 57°42' E 010°52'511.0
2018-Jun-13 13:00N 57°40' E 011°00'611.9
2018-Jun-13 12:30N 57°37' E 011°09'612.1
2018-Jun-13 12:00N 57°33' E 011°17'611.6
2018-Jun-13 11:30N 57°29' E 011°25'611.5
2018-Jun-13 11:00N 57°23' E 011°28'611.3
2018-Jun-13 10:30N 57°18' E 011°32'611.7
2018-Jun-13 09:59N 57°12' E 011°36'711.6
2018-Jun-13 09:23N 57°05' E 011°40'1011.6
2018-Jun-13 08:31N 56°56' E 011°46'105 9.5
2018-Jun-12 21:24N 55°13' E 011°06'4 9.3
2018-Jun-12 21:00N 55°10' E 011°02'510.1
2018-Jun-12 20:30N 55°06' E 010°60'510.1
2018-Jun-12 20:00N 55°01' E 010°59'1210.0
2018-Jun-12 18:49N 54°50' E 010°50'3 9.6
2018-Jun-12 18:30N 54°47' E 010°49'5 9.9
2018-Jun-12 18:00N 54°42' E 010°47'4 7.6
2018-Jun-12 17:30N 54°39' E 010°51'5 9.3
2018-Jun-12 17:00N 54°37' E 010°58'5 9.6
2018-Jun-12 16:30N 54°36' E 011°06'5 9.5
2018-Jun-12 16:00N 54°35' E 011°14'510.1
2018-Jun-12 15:30N 54°33' E 011°22'5 9.7
2018-Jun-12 15:00N 54°31' E 011°29'5 9.9
2018-Jun-12 14:30N 54°29' E 011°37'510.2
2018-Jun-12 14:00N 54°28' E 011°46'510.4
2018-Jun-12 13:30N 54°27' E 011°55'510.4
2018-Jun-12 13:00N 54°27' E 012°03'7710.5
2018-Jun-12 05:42N 55°04' E 013°60'511.4
2018-Jun-12 05:18N 55°07' E 014°06'411.8
2018-Jun-12 04:55N 55°10' E 014°11'511.9
2018-Jun-12 04:30N 55°14' E 014°17'612.0
2018-Jun-12 04:00N 55°18' E 014°23'611.8
2018-Jun-12 03:30N 55°23' E 014°30'611.7
2018-Jun-12 02:59N 55°28' E 014°37'611.6
2018-Jun-12 02:27N 55°30' E 014°47'511.7
2018-Jun-12 02:00N 55°33' E 014°55'611.6
2018-Jun-12 01:30N 55°35' E 015°05'611.8
2018-Jun-12 00:58N 55°38' E 015°15'1011.5
2018-Jun-12 00:08N 55°40' E 015°31'511.4
2018-Jun-11 23:40N 55°41' E 015°40'  

Dump ship's entire track history